KAGC/AGC METAR and TAF weather

Enter ICAO airport designator
Station Type Date Time Source
KAGC METAR 2022/11/30 16:02 UTC NOAA

KAGC 301602Z 28018G37KT 7SM -RA FEW013 SCT024 OVC035 09/06 A2966 RMK AO2 PK WND 28037/1559 PRESRR P0000 T00940061


Station Type Date Time Source
KAGC Decoded METAR 2022/11/30 16:02 UTC NOAA

PITTSBURGH ALLEGHENY CTY., PA, United States (KAGC) 40-21N 079-55W 389M
Nov 30, 2022 - 11:02 AM EST / 2022.11.30 1602 UTC
Wind: from the W (280 degrees) at 21 MPH (18 KT) gusting to 43 MPH (37 KT):0
Visibility: 7 mile(s):0
Sky conditions: overcast
Weather: light rain
Precipitation last hour: A trace
Temperature: 48.9 F (9.4 C)
Dew Point: 43.0 F (6.1 C)
Relative Humidity: 79%
Pressure (altimeter): 29.66 in. Hg (1004 hPa)
Pressure tendency: rising rapidly
ob: KAGC 301602Z 28018G37KT 7SM -RA FEW013 SCT024 OVC035 09/06 A2966 RMK AO2 PK WND 28037/1559 PRESRR P0000 T00940061
cycle: 16

Station Type Date Time Source
KAGC TAF 2022/11/30 16:45 UTC NOAA

TAF
AMD KAGC 301543Z 3016/0112 28020G35KT 3SM -SHRA OVC015
FM301700 27015G30KT P6SM OVC020
FM301900 27015G30KT P6SM BKN050
FM010000 27009G20KT P6SM BKN050

Example: see airport list